createdAt,value
2022-11-20T00:01:39.463Z,0.62
2022-11-20T00:04:11.251Z,0.62
2022-11-20T00:06:39.425Z,0.60
2022-11-20T00:09:07.778Z,0.71
2022-11-20T00:11:36.013Z,0.63
2022-11-20T00:14:05.270Z,0.44
2022-11-20T00:16:35.220Z,0.56
2022-11-20T00:19:03.606Z,0.65
2022-11-20T00:21:34.014Z,0.66
2022-11-20T00:24:02.219Z,0.71
2022-11-20T00:26:31.509Z,0.75
2022-11-20T00:29:01.592Z,0.66
2022-11-20T00:31:31.173Z,0.86
2022-11-20T00:34:00.375Z,0.83
2022-11-20T00:36:30.212Z,0.91
2022-11-20T00:39:01.081Z,0.94
2022-11-20T00:41:30.918Z,0.88
2022-11-20T00:43:59.884Z,0.95
2022-11-20T00:46:29.632Z,0.90
2022-11-20T00:48:58.359Z,0.84
2022-11-20T00:51:28.903Z,0.95
2022-11-20T00:54:01.293Z,0.95
2022-11-20T00:56:32.688Z,0.95
2022-11-20T00:59:03.251Z,0.89
2022-11-20T01:01:31.790Z,0.85
2022-11-20T01:04:02.348Z,0.74
2022-11-20T01:06:33.304Z,0.90
2022-11-20T01:09:05.066Z,0.86
2022-11-20T01:11:36.412Z,0.86
2022-11-20T01:14:06.335Z,0.90
2022-11-20T01:16:38.427Z,0.54
2022-11-20T01:19:09.443Z,0.46
2022-11-20T01:21:39.232Z,0.53
2022-11-20T01:24:13.131Z,0.54
2022-11-20T01:26:44.814Z,0.79
2022-11-20T01:29:21.082Z,0.83
2022-11-20T01:31:50.336Z,0.91
2022-11-20T01:34:20.502Z,0.89
2022-11-20T01:36:49.481Z,1.07
2022-11-20T01:39:22.767Z,1.03
2022-11-20T01:42:10.493Z,1.00
2022-11-20T01:44:55.471Z,0.93
2022-11-20T01:47:29.585Z,0.88
2022-11-20T01:50:01.948Z,0.95
2022-11-20T01:52:35.035Z,0.84
2022-11-20T01:55:09.912Z,0.93
2022-11-20T01:57:39.811Z,0.98
2022-11-20T02:00:10.807Z,0.84
2022-11-20T02:02:41.429Z,0.89
2022-11-20T02:05:19.631Z,0.96
2022-11-20T02:07:49.319Z,0.95
2022-11-20T02:10:19.429Z,0.94
2022-11-20T02:13:05.331Z,0.92
2022-11-20T02:15:35.378Z,0.92
2022-11-20T02:18:04.811Z,0.90
2022-11-20T02:20:32.978Z,0.86
2022-11-20T02:23:07.684Z,0.89
2022-11-20T02:25:44.808Z,0.94
2022-11-20T02:28:14.743Z,0.86
2022-11-20T02:30:42.881Z,0.99
2022-11-20T02:33:11.397Z,0.96
2022-11-20T02:35:48.641Z,1.02
2022-11-20T02:38:18.471Z,0.99
2022-11-20T02:40:52.637Z,0.99
2022-11-20T02:43:22.807Z,1.00
2022-11-20T02:45:52.593Z,0.97
2022-11-20T02:48:22.965Z,1.02
2022-11-20T02:50:54.569Z,1.06
2022-11-20T02:53:23.071Z,1.01
2022-11-20T02:55:53.003Z,1.08
2022-11-20T02:58:21.087Z,1.11
2022-11-20T03:00:49.569Z,1.11
2022-11-20T03:03:18.250Z,1.07
2022-11-20T03:05:46.339Z,1.05
2022-11-20T03:08:15.030Z,1.08
2022-11-20T03:10:43.520Z,1.04
2022-11-20T03:13:13.545Z,0.91
2022-11-20T03:15:41.846Z,0.98
2022-11-20T03:18:10.226Z,0.84
2022-11-20T03:20:38.387Z,0.80
2022-11-20T03:23:06.545Z,0.86
2022-11-20T03:25:35.099Z,0.86
2022-11-20T03:28:04.752Z,0.86
2022-11-20T03:30:34.975Z,0.92
2022-11-20T03:33:03.119Z,0.94
2022-11-20T03:35:31.353Z,0.95
2022-11-20T03:38:00.243Z,1.07
2022-11-20T03:40:28.375Z,1.13
2022-11-20T03:42:56.523Z,1.10
2022-11-20T03:45:25.194Z,1.20
2022-11-20T03:47:55.063Z,1.19
2022-11-20T03:50:23.502Z,1.20
2022-11-20T03:52:51.887Z,1.28
2022-11-20T03:55:20.533Z,1.30
2022-11-20T03:57:49.072Z,1.16
2022-11-20T04:00:18.167Z,1.14
2022-11-20T04:02:46.537Z,1.18
2022-11-20T04:05:16.769Z,1.20
2022-11-20T04:07:45.206Z,0.93
2022-11-20T04:10:13.735Z,0.52
2022-11-20T04:12:42.159Z,0.67
2022-11-20T04:15:11.196Z,0.64
2022-11-20T04:17:39.488Z,0.91
2022-11-20T04:20:09.227Z,0.93
2022-11-20T04:22:39.714Z,1.02
2022-11-20T04:25:08.574Z,1.05
2022-11-20T04:27:36.667Z,1.23
2022-11-20T04:30:05.981Z,1.27
2022-11-20T04:32:35.145Z,1.26
2022-11-20T04:35:03.642Z,1.36
2022-11-20T04:37:31.930Z,1.33
2022-11-20T04:40:03.084Z,1.38
2022-11-20T04:42:31.465Z,1.22
2022-11-20T04:45:00.811Z,1.21
2022-11-20T04:47:29.245Z,1.35
2022-11-20T04:49:57.920Z,1.34
2022-11-20T04:52:29.040Z,1.37
2022-11-20T04:55:00.351Z,1.38
2022-11-20T04:57:29.959Z,1.59
2022-11-20T04:59:58.960Z,1.48
2022-11-20T05:02:27.783Z,1.43
2022-11-20T05:04:56.614Z,1.60
2022-11-20T05:07:26.042Z,1.33
2022-11-20T05:09:54.197Z,1.31
2022-11-20T05:12:22.348Z,1.29
2022-11-20T05:14:52.343Z,1.40
2022-11-20T05:17:20.716Z,1.35
2022-11-20T05:19:52.952Z,1.30
2022-11-20T05:22:23.890Z,1.12
2022-11-20T05:24:52.084Z,1.17
2022-11-20T05:27:20.800Z,1.03
2022-11-20T05:29:49.087Z,1.03
2022-11-20T05:32:18.928Z,1.18
2022-11-20T05:34:47.395Z,1.09
2022-11-20T05:37:15.876Z,1.11
2022-11-20T05:39:44.038Z,0.98
2022-11-20T05:42:29.622Z,1.01
2022-11-20T05:44:57.967Z,1.03
2022-11-20T05:47:28.004Z,1.00
2022-11-20T05:49:58.043Z,1.10
2022-11-20T05:52:27.230Z,1.12
2022-11-20T05:54:55.894Z,1.08
2022-11-20T05:57:25.151Z,1.21
2022-11-20T05:59:53.276Z,1.23
2022-11-20T06:02:21.936Z,1.21
2022-11-20T06:04:51.707Z,0.95
2022-11-20T06:07:19.865Z,1.08
2022-11-20T06:09:48.166Z,1.30
2022-11-20T06:12:16.734Z,1.28
2022-11-20T06:14:45.018Z,1.20
2022-11-20T06:17:15.472Z,1.26
2022-11-20T06:19:46.232Z,1.33
2022-11-20T06:22:16.558Z,1.23
2022-11-20T06:24:47.813Z,1.25
2022-11-20T06:27:16.030Z,1.26
2022-11-20T06:29:44.715Z,1.23
2022-11-20T06:32:14.510Z,1.35
2022-11-20T06:34:43.124Z,1.27
2022-11-20T06:37:15.761Z,1.28
2022-11-20T06:39:43.837Z,1.22
2022-11-20T06:42:12.136Z,1.34
2022-11-20T06:44:40.506Z,1.27
2022-11-20T06:47:08.955Z,1.24
2022-11-20T06:49:39.522Z,1.31
2022-11-20T06:52:07.611Z,1.32
2022-11-20T06:54:37.734Z,1.37
2022-11-20T06:57:06.019Z,1.35
2022-11-20T06:59:34.472Z,1.21
2022-11-20T07:02:04.982Z,1.32
2022-11-20T07:04:33.095Z,1.36
2022-11-20T07:07:05.374Z,1.34
2022-11-20T07:09:33.922Z,1.36
2022-11-20T07:12:03.829Z,1.38
2022-11-20T07:14:31.934Z,1.39
2022-11-20T07:17:00.393Z,1.43
2022-11-20T07:19:28.720Z,1.43
2022-11-20T07:21:57.148Z,1.43
2022-11-20T07:24:25.888Z,1.52
2022-11-20T07:27:02.037Z,1.58
2022-11-20T07:29:32.114Z,1.49
2022-11-20T07:32:00.679Z,1.48
2022-11-20T07:34:29.131Z,1.41
2022-11-20T07:36:57.713Z,1.56
2022-11-20T07:39:25.931Z,1.58
2022-11-20T07:41:54.436Z,1.51
2022-11-20T07:44:23.580Z,1.48
2022-11-20T07:46:53.315Z,1.50
2022-11-20T07:49:21.748Z,1.55
2022-11-20T07:51:52.738Z,1.53
2022-11-20T07:54:21.081Z,1.34
2022-11-20T07:56:49.779Z,1.49
2022-11-20T07:59:18.348Z,1.36
2022-11-20T08:01:47.320Z,1.43
2022-11-20T08:04:17.866Z,1.41
2022-11-20T08:06:46.316Z,1.31
2022-11-20T08:09:14.674Z,1.25
2022-11-20T08:12:00.341Z,1.36
2022-11-20T08:14:29.878Z,1.38
2022-11-20T08:16:58.230Z,1.37
2022-11-20T08:19:28.496Z,1.33
2022-11-20T08:21:57.825Z,1.25
2022-11-20T08:24:27.545Z,1.44
2022-11-20T08:26:59.884Z,1.58
2022-11-20T08:29:29.331Z,1.58
2022-11-20T08:31:58.019Z,1.43
2022-11-20T08:34:27.972Z,1.47
2022-11-20T08:36:56.526Z,1.38
2022-11-20T08:39:24.850Z,1.69
2022-11-20T08:41:53.402Z,1.60
2022-11-20T08:44:21.856Z,1.73
2022-11-20T08:46:50.644Z,1.68
2022-11-20T08:49:19.232Z,1.74
2022-11-20T08:51:52.808Z,1.83
2022-11-20T08:54:23.117Z,1.72
2022-11-20T08:56:51.455Z,1.83
2022-11-20T08:59:43.403Z,2.01
2022-11-20T09:02:08.688Z,1.98
2022-11-20T09:04:37.286Z,2.14
2022-11-20T09:07:07.787Z,1.90
2022-11-20T09:09:36.401Z,1.89
2022-11-20T09:12:04.755Z,2.06
2022-11-20T09:14:33.366Z,2.10
2022-11-20T09:17:02.551Z,2.04
2022-11-20T09:19:38.002Z,2.21
2022-11-20T09:22:07.637Z,2.37
2022-11-20T09:24:36.266Z,2.38
2022-11-20T09:27:07.492Z,2.36
2022-11-20T09:29:35.817Z,2.40
2022-11-20T09:32:04.511Z,2.49
2022-11-20T09:34:33.257Z,2.47
2022-11-20T09:37:06.410Z,2.50
2022-11-20T09:39:40.253Z,2.36
2022-11-20T09:42:23.239Z,2.49
2022-11-20T09:45:03.217Z,2.44
2022-11-20T09:47:49.705Z,2.51
2022-11-20T09:50:30.108Z,2.49
2022-11-20T09:53:13.880Z,2.50
2022-11-20T09:55:44.239Z,2.45
2022-11-20T09:58:25.026Z,2.38
2022-11-20T10:00:57.587Z,2.17
2022-11-20T10:03:39.994Z,2.24
2022-11-20T10:06:14.934Z,2.29
2022-11-20T10:08:47.411Z,2.41
2022-11-20T10:11:25.848Z,2.46
2022-11-20T10:14:09.268Z,2.69
2022-11-20T10:16:46.727Z,2.66
2022-11-20T10:19:32.964Z,2.82
2022-11-20T10:22:16.013Z,2.98
2022-11-20T10:24:55.790Z,3.10
2022-11-20T10:28:00.380Z,2.87
2022-11-20T10:30:31.312Z,2.89
2022-11-20T10:33:06.993Z,2.50
2022-11-20T10:35:42.706Z,2.73
2022-11-20T10:38:19.785Z,2.85
2022-11-20T10:40:51.597Z,3.06
2022-11-20T10:43:28.195Z,3.35
2022-11-20T10:46:03.220Z,3.04
2022-11-20T10:48:35.563Z,2.96
2022-11-20T10:51:17.342Z,2.81
2022-11-20T10:53:57.534Z,3.11
2022-11-20T10:56:32.478Z,3.21
2022-11-20T10:59:25.482Z,2.65
2022-11-20T11:01:57.076Z,2.67
2022-11-20T11:04:39.330Z,2.90
2022-11-20T11:07:15.676Z,3.06
2022-11-20T11:09:49.176Z,3.14
2022-11-20T11:12:17.662Z,2.47
2022-11-20T11:14:50.023Z,2.48
2022-11-20T11:17:25.912Z,2.81
2022-11-20T11:20:06.708Z,2.66
2022-11-20T11:22:37.193Z,2.44
2022-11-20T11:25:06.748Z,2.53
2022-11-20T11:27:35.029Z,2.40
2022-11-20T11:30:18.063Z,2.35
2022-11-20T11:32:46.887Z,2.43
2022-11-20T11:35:27.184Z,2.63
2022-11-20T11:38:05.542Z,2.73
2022-11-20T11:40:36.552Z,2.87
2022-11-20T11:43:31.858Z,3.30
2022-11-20T11:46:07.490Z,3.27
2022-11-20T11:48:35.964Z,3.40
2022-11-20T11:51:04.163Z,3.22
2022-11-20T11:53:33.664Z,3.14
2022-11-20T11:56:10.766Z,2.67
2022-11-20T11:58:48.045Z,2.87
2022-11-20T12:01:30.460Z,2.79
2022-11-20T12:04:06.227Z,2.89
2022-11-20T12:06:39.151Z,2.75
2022-11-20T12:09:13.195Z,2.79
2022-11-20T12:11:47.863Z,2.79
2022-11-20T12:14:25.118Z,2.92
2022-11-20T12:16:56.791Z,3.06
2022-11-20T12:19:25.153Z,3.03
2022-11-20T12:22:07.007Z,2.91
2022-11-20T12:24:48.142Z,3.22
2022-11-20T12:27:55.872Z,3.39
2022-11-20T12:30:25.953Z,3.32
2022-11-20T12:33:15.075Z,3.37
2022-11-20T12:36:08.981Z,3.55
2022-11-20T12:39:00.775Z,3.51
2022-11-20T12:42:02.974Z,3.21
2022-11-20T12:45:10.274Z,3.60
2022-11-20T12:47:52.623Z,3.67
2022-11-20T12:50:53.424Z,3.78
2022-11-20T12:53:35.823Z,3.76
2022-11-20T12:56:19.250Z,3.62
2022-11-20T12:58:59.352Z,3.26
2022-11-20T13:01:45.291Z,3.25
2022-11-20T13:04:27.127Z,3.69
2022-11-20T13:06:58.633Z,3.65
2022-11-20T13:09:28.459Z,3.50
2022-11-20T13:12:08.227Z,3.48
2022-11-20T13:14:42.949Z,3.56
2022-11-20T13:17:19.659Z,3.70
2022-11-20T13:19:52.656Z,3.86
2022-11-20T13:22:29.325Z,3.93
2022-11-20T13:24:59.274Z,3.86
2022-11-20T13:27:27.325Z,3.77
2022-11-20T13:30:05.862Z,3.76
2022-11-20T13:32:34.223Z,3.88
2022-11-20T13:35:05.117Z,3.81
2022-11-20T13:37:36.712Z,3.84
2022-11-20T13:40:24.547Z,3.95
2022-11-20T13:43:07.006Z,3.97
2022-11-20T13:45:35.184Z,4.08
2022-11-20T13:48:07.074Z,4.23
2022-11-20T13:50:50.749Z,4.02
2022-11-20T13:53:40.506Z,4.14
2022-11-20T13:56:19.478Z,3.98
2022-11-20T13:58:56.715Z,4.13
2022-11-20T14:01:27.799Z,3.60
2022-11-20T14:04:06.068Z,3.84
2022-11-20T14:06:43.422Z,3.76
2022-11-20T14:09:27.196Z,3.69
2022-11-20T14:11:55.313Z,3.82
2022-11-20T14:14:26.681Z,4.00
2022-11-20T14:17:07.130Z,3.91
2022-11-20T14:19:38.267Z,3.93
2022-11-20T14:22:13.327Z,3.81
2022-11-20T14:24:44.768Z,3.82
2022-11-20T14:27:16.141Z,3.61
2022-11-20T14:29:46.286Z,3.79
2022-11-20T14:32:18.787Z,3.69
2022-11-20T14:34:50.934Z,3.66
2022-11-20T14:37:24.274Z,3.76
2022-11-20T14:39:57.173Z,3.48
2022-11-20T14:42:28.137Z,3.67
2022-11-20T14:45:01.435Z,3.75
2022-11-20T14:47:32.953Z,3.76
2022-11-20T14:50:07.339Z,3.74
2022-11-20T14:52:38.181Z,3.54
2022-11-20T14:55:16.453Z,3.57
2022-11-20T14:57:44.562Z,3.47
2022-11-20T15:00:23.186Z,3.34
2022-11-20T15:02:53.774Z,3.31
2022-11-20T15:05:24.086Z,3.43
2022-11-20T15:07:55.108Z,3.42
2022-11-20T15:10:28.494Z,3.47
2022-11-20T15:13:01.123Z,3.44
2022-11-20T15:15:35.181Z,3.56
2022-11-20T15:18:04.599Z,3.41
2022-11-20T15:20:34.822Z,3.55
2022-11-20T15:23:03.881Z,3.44
2022-11-20T15:25:34.481Z,3.46
2022-11-20T15:28:03.345Z,3.35
2022-11-20T15:30:31.668Z,3.26
2022-11-20T15:33:01.170Z,3.33
2022-11-20T15:35:29.704Z,3.18
2022-11-20T15:37:58.128Z,3.32
2022-11-20T15:40:26.336Z,3.37
2022-11-20T15:43:13.277Z,3.29
2022-11-20T15:45:45.111Z,3.38
2022-11-20T15:48:17.042Z,3.14
2022-11-20T15:50:52.358Z,3.32
2022-11-20T15:53:22.254Z,3.35
2022-11-20T15:55:56.817Z,3.42
2022-11-20T15:58:27.772Z,3.45
2022-11-20T16:00:59.816Z,3.51
2022-11-20T16:03:29.432Z,3.40
2022-11-20T16:06:01.287Z,3.32
2022-11-20T16:08:29.832Z,3.23
2022-11-20T16:10:59.470Z,3.24
2022-11-20T16:13:48.679Z,3.32
2022-11-20T16:16:24.266Z,3.31
2022-11-20T16:18:52.869Z,3.39
2022-11-20T16:21:21.404Z,3.34
2022-11-20T16:23:52.582Z,3.42
2022-11-20T16:26:21.910Z,3.33
2022-11-20T16:28:52.051Z,3.49
2022-11-20T16:31:22.035Z,3.42
2022-11-20T16:33:54.516Z,3.41
2022-11-20T16:36:24.451Z,3.33
2022-11-20T16:38:55.006Z,3.29
2022-11-20T16:41:23.646Z,3.36
2022-11-20T16:43:54.686Z,3.20
2022-11-20T16:46:25.874Z,3.33
2022-11-20T16:49:00.439Z,3.41
2022-11-20T16:51:32.236Z,3.21
2022-11-20T16:54:03.678Z,3.23
2022-11-20T16:56:32.732Z,3.31
2022-11-20T16:59:04.264Z,3.30
2022-11-20T17:01:33.261Z,3.36
2022-11-20T17:04:03.175Z,3.38
2022-11-20T17:06:33.089Z,3.25
2022-11-20T17:09:02.180Z,3.32
2022-11-20T17:11:30.960Z,3.42
2022-11-20T17:14:00.993Z,3.32
2022-11-20T17:16:31.941Z,3.40
2022-11-20T17:19:05.870Z,3.44
2022-11-20T17:21:36.244Z,3.50
2022-11-20T17:24:06.599Z,3.60
2022-11-20T17:26:36.356Z,3.47
2022-11-20T17:29:08.202Z,3.58
2022-11-20T17:31:40.062Z,3.55
2022-11-20T17:34:12.616Z,3.66
2022-11-20T17:36:45.180Z,3.54
2022-11-20T17:39:14.988Z,3.65
2022-11-20T17:41:43.339Z,3.62
2022-11-20T17:44:12.763Z,3.67
2022-11-20T17:46:42.409Z,3.77
2022-11-20T17:49:10.958Z,3.70
2022-11-20T17:51:40.943Z,3.80
2022-11-20T17:54:10.620Z,3.91
2022-11-20T17:56:56.823Z,3.93
2022-11-20T17:59:25.525Z,3.91
2022-11-20T18:01:58.591Z,3.85
2022-11-20T18:04:31.061Z,3.94
2022-11-20T18:06:59.710Z,4.08
2022-11-20T18:09:27.918Z,3.91
2022-11-20T18:11:57.720Z,3.97
2022-11-20T18:14:32.958Z,3.99
2022-11-20T18:17:06.133Z,3.92
2022-11-20T18:19:42.654Z,4.12
2022-11-20T18:22:17.888Z,4.15
2022-11-20T18:24:46.930Z,4.08
2022-11-20T18:27:17.357Z,4.15
2022-11-20T18:29:48.701Z,4.13
2022-11-20T18:32:19.670Z,4.10
2022-11-20T18:34:47.987Z,4.09
2022-11-20T18:37:16.834Z,4.15
2022-11-20T18:39:45.871Z,4.19
2022-11-20T18:42:33.831Z,4.27
2022-11-20T18:45:04.424Z,4.22
2022-11-20T18:47:38.203Z,4.18
2022-11-20T18:50:09.040Z,4.23
2022-11-20T18:52:41.510Z,4.20
2022-11-20T18:55:12.203Z,4.20
2022-11-20T18:57:41.767Z,4.13
2022-11-20T19:00:12.014Z,4.24
2022-11-20T19:02:43.182Z,4.31
2022-11-20T19:05:12.786Z,4.19
2022-11-20T19:07:41.380Z,4.13
2022-11-20T19:10:10.486Z,4.25
2022-11-20T19:12:38.670Z,4.22
2022-11-20T19:15:08.408Z,4.12
2022-11-20T19:17:38.727Z,4.19
2022-11-20T19:20:10.441Z,4.34
2022-11-20T19:22:38.950Z,4.36
2022-11-20T19:25:08.383Z,4.34
2022-11-20T19:27:37.121Z,4.49
2022-11-20T19:30:07.776Z,4.37
2022-11-20T19:32:37.046Z,4.43
2022-11-20T19:35:06.271Z,4.41
2022-11-20T19:37:36.829Z,4.50
2022-11-20T19:40:06.155Z,4.58
2022-11-20T19:42:36.828Z,4.57
2022-11-20T19:45:06.126Z,4.57
2022-11-20T19:48:00.985Z,4.65
2022-11-20T19:50:23.340Z,4.74
2022-11-20T19:52:59.102Z,4.64
2022-11-20T19:55:27.919Z,4.57
2022-11-20T19:57:56.358Z,4.68
2022-11-20T20:00:31.057Z,4.78
2022-11-20T20:03:01.063Z,4.82
2022-11-20T20:05:29.687Z,4.86
2022-11-20T20:08:02.490Z,4.89
2022-11-20T20:10:31.612Z,4.97
2022-11-20T20:13:04.710Z,4.95
2022-11-20T20:15:33.377Z,5.02
2022-11-20T20:18:01.984Z,5.05
2022-11-20T20:20:30.092Z,5.00
2022-11-20T20:23:00.073Z,5.16
2022-11-20T20:25:28.559Z,5.15
2022-11-20T20:27:56.868Z,5.11
2022-11-20T20:30:25.505Z,5.14
2022-11-20T20:32:56.443Z,5.13
2022-11-20T20:35:25.702Z,5.14
2022-11-20T20:37:53.737Z,5.07
2022-11-20T20:40:23.820Z,5.22
2022-11-20T20:42:52.227Z,5.26
2022-11-20T20:45:20.831Z,5.24
2022-11-20T20:47:49.249Z,5.23
2022-11-20T20:50:17.784Z,5.33
2022-11-20T20:52:46.447Z,5.33
2022-11-20T20:55:15.318Z,5.25
2022-11-20T20:57:45.687Z,5.35
2022-11-20T21:00:15.207Z,5.33
2022-11-20T21:02:43.450Z,5.45
2022-11-20T21:05:11.966Z,5.37
2022-11-20T21:08:00.367Z,5.37
2022-11-20T21:10:30.667Z,5.51
2022-11-20T21:13:02.906Z,5.50
2022-11-20T21:15:31.366Z,5.51
2022-11-20T21:18:00.056Z,5.52
2022-11-20T21:20:47.317Z,5.61
2022-11-20T21:23:15.722Z,5.53
2022-11-20T21:25:45.546Z,5.45
2022-11-20T21:28:18.209Z,5.45
2022-11-20T21:30:47.812Z,5.53
2022-11-20T21:33:17.412Z,5.53
2022-11-20T21:35:46.652Z,5.61
2022-11-20T21:38:15.278Z,5.56
2022-11-20T21:40:44.023Z,5.64
2022-11-20T21:43:19.287Z,5.57
2022-11-20T21:45:47.567Z,5.53
2022-11-20T21:48:16.268Z,5.69
2022-11-20T21:50:45.078Z,5.74
2022-11-20T21:53:13.515Z,5.86
2022-11-20T21:55:42.248Z,6.00
2022-11-20T21:58:10.782Z,6.03
2022-11-20T22:00:40.619Z,6.03
2022-11-20T22:03:11.255Z,6.08
2022-11-20T22:05:39.414Z,6.13
2022-11-20T22:08:08.473Z,6.25
2022-11-20T22:10:37.467Z,6.18
2022-11-20T22:13:23.147Z,6.22
2022-11-20T22:16:00.933Z,6.17
2022-11-20T22:18:29.687Z,6.20
2022-11-20T22:20:58.337Z,6.19
2022-11-20T22:23:26.503Z,6.22
2022-11-20T22:25:54.672Z,6.18
2022-11-20T22:28:24.049Z,6.18
2022-11-20T22:30:54.286Z,6.25
2022-11-20T22:33:22.715Z,6.13
2022-11-20T22:35:51.241Z,6.13
2022-11-20T22:38:21.070Z,6.19
2022-11-20T22:40:49.546Z,6.26
2022-11-20T22:43:18.360Z,6.22
2022-11-20T22:45:47.153Z,6.31
2022-11-20T22:48:19.900Z,6.40
2022-11-20T22:50:48.455Z,6.32
2022-11-20T22:53:16.944Z,6.33
2022-11-20T22:55:53.343Z,6.44
2022-11-20T22:58:23.785Z,6.48
2022-11-20T23:00:54.525Z,6.36
2022-11-20T23:03:25.740Z,6.30
2022-11-20T23:05:53.970Z,6.36
2022-11-20T23:08:22.462Z,6.38
2022-11-20T23:10:52.151Z,6.45
2022-11-20T23:13:20.540Z,6.50
2022-11-20T23:15:55.826Z,6.44
2022-11-20T23:18:25.960Z,6.50
2022-11-20T23:20:54.180Z,6.50
2022-11-20T23:23:22.668Z,6.51
2022-11-20T23:25:51.450Z,6.45
2022-11-20T23:28:20.105Z,6.41
2022-11-20T23:30:49.199Z,6.47
2022-11-20T23:33:18.134Z,6.52
2022-11-20T23:35:49.688Z,6.39
2022-11-20T23:38:18.307Z,6.38
2022-11-20T23:40:49.821Z,6.47
2022-11-20T23:43:18.833Z,6.33
2022-11-20T23:45:48.949Z,6.30
2022-11-20T23:48:18.156Z,6.22
2022-11-20T23:50:47.312Z,6.23
2022-11-20T23:53:17.590Z,6.30
2022-11-20T23:55:48.487Z,6.25
2022-11-20T23:58:17.473Z,6.26
